Disclaimer

Please do not use the information listed here in-flight or in-navigation, as they are not provided to us by the airports but are provided by volunteers, so they might be outdated.

Search


Regions


Airport information page

Radio informations:
Melbourne Center - 125.8 MHz
Common traffic adv. frequency (CTAF) - 126.65 MHz

Airport informations:
Latitude: 37° 44' 44.00" S
Longitude: 140° 47' 07.00" E
Elevation: 212 feet - 65 meters
Operating hours: N/A
Operating agency: Civil government, landing fees and diplomatic clearance may be required
Timezone: UTC+9:30(+10:30DT)
Fuel: Jet A1, without icing nhibitor.

100/130 MIL Spec, low lead, aviation gasoline (BLUE)

Runway information:
06/24 - 2776 x 98 feet< - >846 x 30 meters
11/29 - 3025 x 98 feet< - >922 x 30 meters
18/36 - 5000 x 98 feet< - >1524 x 30 meters

Recent METARs:
YMTG 181500Z AUTO 13007KT 9999 // OVC120 15/13 Q1013
YMTG 181500Z AUTO 13007KT 9999 // OVC120 15/13 Q1013
YMTG 181600Z AUTO 11007KT 9999 // SCT120 14/13 Q1011

Airport on the map: